Time;durP1;ratioP1;P1;durP2;ratioP2;P2;SDS_P1;SDS_P2;PMS_P1;PMS_P2;Temp;Humidity;BMP_temperature;BMP_pressure;BME280_temperature;BME280_humidity;BME280_pressure;Samples;Min_cycle;Max_cycle;Signal;HPM_P1;HPM_P2
2023/09/24 00:02:14;;;;;;;4.50;1.35;;;19.50;74.00;;;;;;7402263;19;20261;-70
2023/09/24 00:04:43;;;;;;;5.43;1.67;;;19.50;74.10;;;;;;7400886;19;19921;-71
2023/09/24 00:07:10;;;;;;;4.85;1.40;;;19.60;74.20;;;;;;7402006;19;19915;-70
2023/09/24 00:09:36;;;;;;;3.72;1.67;;;19.50;74.30;;;;;;7402789;19;19915;-70
2023/09/24 00:12:02;;;;;;;4.28;1.40;;;19.50;74.50;;;;;;7401239;19;19918;-70
2023/09/24 00:14:30;;;;;;;6.72;1.90;;;19.50;74.60;;;;;;7402157;19;19911;-70
2023/09/24 00:16:57;;;;;;;3.45;1.48;;;19.50;74.90;;;;;;7401379;19;19986;-70
2023/09/24 00:19:23;;;;;;;;;;;19.40;75.10;;;;;;7401479;19;19946;-70
2023/09/24 00:21:49;;;;;;;5.45;1.70;;;19.40;75.40;;;;;;7400204;19;19918;-70
2023/09/24 00:24:17;;;;;;;3.92;2.05;;;19.40;75.90;;;;;;7401204;19;20341;-71
2023/09/24 00:26:46;;;;;;;3.55;1.42;;;19.30;76.20;;;;;;7401597;19;19922;-72
2023/09/24 00:29:15;;;;;;;5.30;2.45;;;19.30;76.30;;;;;;7402321;19;19918;-71
2023/09/24 00:31:41;;;;;;;5.63;1.88;;;19.30;76.60;;;;;;7401889;19;19918;-70
2023/09/24 00:34:08;;;;;;;3.38;1.35;;;19.30;76.80;;;;;;7400031;19;20262;-70
2023/09/24 00:36:33;;;;;;;;;;;19.30;77.10;;;;;;7403399;19;19919;-70
2023/09/24 00:39:01;;;;;;;4.53;1.20;;;19.30;77.80;;;;;;7400184;19;19953;-70
2023/09/24 00:41:27;;;;;;;3.55;1.20;;;19.20;77.90;;;;;;7399080;19;20341;-70
2023/09/24 00:43:53;;;;;;;3.33;1.35;;;19.20;78.20;;;;;;7399246;19;19955;-71
2023/09/24 00:46:21;;;;;;;6.72;1.50;;;19.30;78.80;;;;;;7401285;19;20274;-69
2023/09/24 00:48:49;;;;;;;3.03;1.15;;;19.30;78.80;;;;;;7400159;19;19915;-70
2023/09/24 00:51:21;;;;;;;3.85;1.20;;;19.30;78.80;;;;;;7400625;19;20648;-70
2023/09/24 00:53:49;;;;;;;4.65;1.40;;;19.30;78.80;;;;;;7399494;19;19968;-70
2023/09/24 00:56:15;;;;;;;3.80;1.73;;;19.40;78.70;;;;;;7401090;19;20366;-70
2023/09/24 00:58:46;;;;;;;6.03;1.40;;;19.40;78.60;;;;;;7399827;19;20331;-70
2023/09/24 01:01:13;;;;;;;5.85;1.60;;;19.40;78.40;;;;;;7401282;19;20331;-72
2023/09/24 01:03:40;;;;;;;4.78;1.20;;;19.50;78.60;;;;;;7397719;19;20369;-70
2023/09/24 01:06:06;;;;;;;5.28;1.70;;;19.50;78.60;;;;;;7400904;19;19915;-72
2023/09/24 01:08:34;;;;;;;8.13;1.92;;;19.50;78.50;;;;;;7397582;19;19918;-71
2023/09/24 01:11:01;;;;;;;4.40;1.80;;;19.50;78.50;;;;;;7401137;19;19918;-71
2023/09/24 01:13:40;;;;;;;5.68;1.45;;;19.40;78.90;;;;;;7399417;19;19918;-70
2023/09/24 01:16:07;;;;;;;6.65;1.33;;;19.50;79.30;;;;;;7398083;19;20237;-71
2023/09/24 01:18:36;;;;;;;3.30;1.35;;;19.40;79.70;;;;;;7398992;19;19914;-70
2023/09/24 01:21:07;;;;;;;4.45;1.10;;;19.40;80.00;;;;;;7399291;19;19911;-70
2023/09/24 01:23:36;;;;;;;4.85;1.50;;;19.30;80.20;;;;;;7401321;19;20009;-70
2023/09/24 01:26:03;;;;;;;6.50;1.50;;;19.30;80.70;;;;;;7399260;19;20349;-70
2023/09/24 01:28:29;;;;;;;;;;;19.30;81.10;;;;;;7401412;19;19907;-70
2023/09/24 01:30:56;;;;;;;4.90;1.52;;;19.20;81.70;;;;;;7397335;19;19950;-70
2023/09/24 01:33:23;;;;;;;4.63;1.65;;;19.20;82.00;;;;;;7399137;19;19919;-70
2023/09/24 01:35:49;;;;;;;5.03;1.58;;;19.10;82.50;;;;;;7400596;19;19942;-70
2023/09/24 01:38:16;;;;;;;6.00;1.50;;;19.10;83.10;;;;;;7400405;19;19915;-69
2023/09/24 01:40:42;;;;;;;5.07;2.17;;;19.10;83.50;;;;;;7397756;19;19919;-70
2023/09/24 01:43:08;;;;;;;3.58;1.30;;;19.10;83.60;;;;;;7397979;19;19926;-71
2023/09/24 01:45:38;;;;;;;5.10;1.70;;;19.10;84.00;;;;;;7398174;19;19966;-70
2023/09/24 01:48:05;;;;;;;3.78;1.50;;;19.20;84.10;;;;;;7398689;19;19926;-70
2023/09/24 01:50:35;;;;;;;5.30;2.08;;;19.20;84.30;;;;;;7399561;19;19907;-70
2023/09/24 01:53:02;;;;;;;3.88;1.33;;;19.10;84.60;;;;;;7400556;19;19942;-70
2023/09/24 01:55:28;;;;;;;6.43;1.80;;;19.10;85.20;;;;;;7397981;19;19993;-70
2023/09/24 01:57:55;;;;;;;;;;;19.10;85.70;;;;;;7400939;19;19926;-70
2023/09/24 02:00:23;;;;;;;6.30;1.40;;;19.10;86.10;;;;;;7396800;19;19919;-71
2023/09/24 02:02:50;;;;;;;5.03;1.58;;;19.10;86.20;;;;;;7399634;19;19918;-70
2023/09/24 02:05:17;;;;;;;5.00;1.63;;;19.00;86.60;;;;;;7397501;19;19923;-70
2023/09/24 02:07:43;;;;;;;4.43;1.77;;;19.00;87.40;;;;;;7398142;19;19981;-69
2023/09/24 02:10:12;;;;;;;6.82;1.52;;;19.00;87.90;;;;;;7395649;19;19982;-69
2023/09/24 02:12:38;;;;;;;5.45;1.33;;;19.00;88.60;;;;;;7396536;19;19915;-71
2023/09/24 02:15:11;;;;;;;4.60;1.60;;;18.90;89.00;;;;;;7397155;19;19930;-70
2023/09/24 02:17:41;;;;;;;3.70;1.08;;;18.90;89.70;;;;;;7398030;19;20322;-70
2023/09/24 02:20:54;;;;;;;4.25;1.55;;;18.90;90.20;;;;;;7374904;19;19937;-71
2023/09/24 02:23:03;;;;;;;5.00;1.55;;;18.90;90.60;;;;;;7395739;19;20545;-70
2023/09/24 02:25:31;;;;;;;4.05;1.50;;;18.80;90.40;;;;;;7397465;19;19941;-70
2023/09/24 02:27:58;;;;;;;4.43;1.65;;;18.80;90.60;;;;;;7397805;19;19914;-70
2023/09/24 02:30:25;;;;;;;4.45;1.30;;;18.80;90.90;;;;;;7396711;19;19949;-70
2023/09/24 02:32:51;;;;;;;4.10;1.88;;;18.80;91.00;;;;;;7395210;19;19932;-69
2023/09/24 02:35:17;;;;;;;5.72;1.50;;;18.80;91.00;;;;;;7397356;19;20252;-70
2023/09/24 02:37:45;;;;;;;7.45;1.90;;;18.80;91.00;;;;;;7394750;19;19914;-71
2023/09/24 02:40:21;;;;;;;6.50;1.50;;;18.80;91.20;;;;;;7397685;19;19919;-71
2023/09/24 02:42:48;;;;;;;5.78;1.67;;;18.70;91.30;;;;;;7394670;19;20319;-72
2023/09/24 02:45:17;;;;;;;4.60;1.85;;;18.70;91.50;;;;;;7396690;19;19922;-70
2023/09/24 02:47:45;;;;;;;5.35;1.30;;;18.70;91.60;;;;;;7398067;19;19937;-70
2023/09/24 02:50:14;;;;;;;4.70;1.45;;;18.70;91.90;;;;;;7396883;19;19927;-70
2023/09/24 02:52:41;;;;;;;7.47;1.70;;;18.80;91.90;;;;;;7395539;19;19917;-70
2023/09/24 02:55:10;;;;;;;5.53;1.55;;;18.90;92.00;;;;;;7395590;19;19911;-71
2023/09/24 02:57:37;;;;;;;4.80;1.65;;;18.90;92.00;;;;;;7395778;19;20005;-70
2023/09/24 03:00:34;;;;;;;3.90;1.38;;;18.90;92.30;;;;;;7394151;19;19942;-69
2023/09/24 03:02:58;;;;;;;4.38;1.55;;;18.90;92.40;;;;;;7397879;19;20267;-70
2023/09/24 03:05:24;;;;;;;4.28;1.58;;;19.00;92.70;;;;;;7404211;19;20359;-70
2023/09/24 03:07:54;;;;;;;5.07;1.55;;;19.00;92.80;;;;;;7403151;19;20770;-70
2023/09/24 03:10:21;;;;;;;3.45;1.30;;;19.10;92.80;;;;;;7402000;19;19926;-71
2023/09/24 03:12:48;;;;;;;6.03;1.40;;;19.20;92.70;;;;;;7403886;19;19929;-70
2023/09/24 03:15:14;;;;;;;5.38;1.60;;;19.20;92.60;;;;;;7379909;19;19922;-71
2023/09/24 03:17:42;;;;;;;4.95;1.75;;;19.20;93.10;;;;;;7404201;19;19926;-70
2023/09/24 03:20:16;;;;;;;5.32;1.63;;;19.20;93.10;;;;;;7398618;19;19921;-70
2023/09/24 03:22:50;;;;;;;5.68;1.63;;;19.20;93.20;;;;;;7403148;19;19922;-70
2023/09/24 03:25:21;;;;;;;6.40;1.58;;;19.20;93.30;;;;;;7400277;19;19925;-70
2023/09/24 03:27:48;;;;;;;5.32;1.55;;;19.20;93.60;;;;;;7404039;19;19918;-70
2023/09/24 03:30:17;;;;;;;5.35;1.55;;;19.10;93.70;;;;;;7399548;19;20560;-70
2023/09/24 03:32:47;;;;;;;4.07;1.90;;;19.10;93.80;;;;;;7403474;19;19927;-70
2023/09/24 03:35:14;;;;;;;5.18;1.30;;;19.10;93.90;;;;;;7399447;19;19935;-70
2023/09/24 03:37:43;;;;;;;5.13;1.30;;;19.00;94.00;;;;;;7402150;19;20399;-69
2023/09/24 03:40:12;;;;;;;7.50;1.20;;;19.00;93.80;;;;;;7400867;19;19928;-70
2023/09/24 03:42:38;;;;;;;5.80;1.35;;;18.90;93.50;;;;;;7403532;19;19935;-70
2023/09/24 03:45:10;;;;;;;5.07;1.85;;;18.90;93.60;;;;;;7398816;19;20518;-70
2023/09/24 03:47:38;;;;;;;5.80;1.67;;;18.80;93.50;;;;;;7403019;19;19922;-71
2023/09/24 03:50:05;;;;;;;5.88;1.77;;;18.80;93.40;;;;;;7399598;19;19926;-71
2023/09/24 03:52:32;;;;;;;6.38;1.92;;;18.80;93.00;;;;;;7401520;19;19937;-71
2023/09/24 03:54:59;;;;;;;4.63;1.75;;;18.70;92.80;;;;;;7400744;19;19922;-70
2023/09/24 03:57:29;;;;;;;6.15;2.40;;;18.70;93.00;;;;;;7401806;19;19943;-70
2023/09/24 03:59:55;;;;;;;4.95;0.90;;;18.70;92.60;;;;;;7403406;19;19919;-70
2023/09/24 04:02:22;;;;;;;4.63;1.58;;;18.70;92.10;;;;;;7400131;19;19926;-70
2023/09/24 04:04:48;;;;;;;7.80;1.83;;;18.70;91.80;;;;;;7402861;19;19932;-71
2023/09/24 04:07:15;;;;;;;5.28;1.63;;;18.60;91.30;;;;;;7401838;19;19934;-70
2023/09/24 04:09:44;;;;;;;5.55;1.17;;;18.60;90.70;;;;;;7403537;19;19926;-70
2023/09/24 04:12:12;;;;;;;6.25;1.50;;;18.60;90.10;;;;;;7398886;19;19918;-70
2023/09/24 04:14:38;;;;;;;4.20;1.27;;;18.60;89.20;;;;;;7400737;19;19922;-69
2023/09/24 04:17:05;;;;;;;4.95;1.75;;;18.70;87.90;;;;;;7401391;19;19950;-70
2023/09/24 04:19:32;;;;;;;3.47;1.13;;;18.80;87.00;;;;;;7404336;19;19926;-70
2023/09/24 04:21:58;;;;;;;5.22;1.38;;;18.80;86.20;;;;;;7403424;19;19985;-71
2023/09/24 04:24:24;;;;;;;5.05;1.38;;;18.80;85.80;;;;;;7402837;19;19931;-71
2023/09/24 04:26:54;;;;;;;5.30;1.67;;;18.80;85.80;;;;;;7404574;19;19911;-70
2023/09/24 04:29:20;;;;;;;5.88;2.17;;;18.80;85.60;;;;;;7401059;19;19917;-69
2023/09/24 04:31:46;;;;;;;4.13;1.23;;;18.70;85.40;;;;;;7401540;19;20346;-71
2023/09/24 04:34:13;;;;;;;4.95;1.85;;;18.70;85.60;;;;;;7398661;19;19918;-70
2023/09/24 04:36:40;;;;;;;4.95;2.17;;;18.60;86.10;;;;;;7400648;19;19922;-70
2023/09/24 04:39:09;;;;;;;3.92;1.55;;;18.60;86.50;;;;;;7400461;19;20430;-69
2023/09/24 04:41:36;;;;;;;4.28;1.50;;;18.70;86.40;;;;;;7401768;19;19919;-70
2023/09/24 04:44:03;;;;;;;4.30;1.30;;;18.60;86.20;;;;;;7401560;19;20418;-69
2023/09/24 04:46:28;;;;;;;4.15;1.17;;;18.60;86.20;;;;;;7400011;19;19914;-70
2023/09/24 04:48:54;;;;;;;4.20;1.35;;;18.50;86.50;;;;;;7401359;19;19950;-70
2023/09/24 04:51:20;;;;;;;4.63;1.30;;;18.50;87.30;;;;;;7400982;19;19926;-71
2023/09/24 04:53:46;;;;;;;5.35;1.58;;;18.50;87.40;;;;;;7403085;19;19941;-71
2023/09/24 04:56:11;;;;;;;7.25;1.58;;;18.50;86.90;;;;;;7400050;19;19937;-70
2023/09/24 04:58:38;;;;;;;5.82;2.05;;;18.50;86.40;;;;;;7400883;19;19953;-71
2023/09/24 05:01:08;;;;;;;4.72;1.08;;;18.50;86.00;;;;;;7398524;19;19921;-70
2023/09/24 05:03:35;;;;;;;5.38;2.00;;;18.50;85.40;;;;;;7400458;19;22226;-71
2023/09/24 05:06:03;;;;;;;7.10;1.60;;;18.50;85.30;;;;;;7403163;19;20328;-70
2023/09/24 05:08:29;;;;;;;3.53;1.30;;;18.40;85.30;;;;;;7401197;19;20274;-70
2023/09/24 05:10:55;;;;;;;4.25;1.80;;;18.40;85.50;;;;;;7401939;19;19929;-71
2023/09/24 05:13:21;;;;;;;3.35;1.63;;;18.50;85.10;;;;;;7399586;19;19926;-70
2023/09/24 05:15:53;;;;;;;4.88;1.30;;;18.50;84.60;;;;;;7401445;19;19918;-71
2023/09/24 05:18:20;;;;;;;3.92;1.52;;;18.60;85.00;;;;;;7400021;19;19928;-70
2023/09/24 05:20:46;;;;;;;4.93;1.38;;;18.60;84.50;;;;;;7400854;19;19969;-71
2023/09/24 05:23:12;;;;;;;5.80;1.70;;;18.60;84.60;;;;;;7399287;19;20339;-70
2023/09/24 05:25:37;;;;;;;3.45;1.70;;;18.50;84.90;;;;;;7401324;19;19951;-71
2023/09/24 05:28:03;;;;;;;3.47;1.40;;;18.50;85.10;;;;;;7398667;19;19943;-70
2023/09/24 05:30:29;;;;;;;5.65;2.00;;;18.50;85.20;;;;;;7402910;19;19915;-71
2023/09/24 05:32:55;;;;;;;5.03;1.98;;;18.50;85.70;;;;;;7401571;19;20014;-71
2023/09/24 05:35:22;;;;;;;5.90;2.00;;;18.40;85.90;;;;;;7398812;19;19968;-70
2023/09/24 05:37:48;;;;;;;5.70;2.05;;;18.40;86.00;;;;;;7400930;19;20246;-71
2023/09/24 05:40:14;;;;;;;6.45;1.48;;;18.50;86.20;;;;;;7398458;19;19919;-70
2023/09/24 05:42:43;;;;;;;3.17;1.45;;;18.60;86.20;;;;;;7402047;19;19942;-70
2023/09/24 05:45:09;;;;;;;4.22;1.33;;;18.70;85.80;;;;;;7397750;19;20335;-71
2023/09/24 05:47:35;;;;;;;6.57;1.60;;;18.80;85.40;;;;;;7398996;19;20311;-71
2023/09/24 05:50:03;;;;;;;5.13;2.08;;;18.80;85.50;;;;;;7398217;19;19926;-70
2023/09/24 05:52:30;;;;;;;5.45;1.60;;;18.80;85.50;;;;;;7399378;19;19926;-71
2023/09/24 05:54:56;;;;;;;4.85;1.73;;;18.70;85.90;;;;;;7391762;19;19950;-70
2023/09/24 05:57:26;;;;;;;5.82;1.33;;;18.70;87.00;;;;;;7398229;19;20347;-70
2023/09/24 05:59:55;;;;;;;5.20;1.90;;;18.70;87.50;;;;;;7401033;19;19915;-71
2023/09/24 06:02:27;;;;;;;6.18;1.75;;;18.70;87.20;;;;;;7397060;19;19923;-71
2023/09/24 06:04:55;;;;;;;5.65;1.70;;;18.70;86.90;;;;;;7399726;19;20381;-70
2023/09/24 06:07:22;;;;;;;4.80;1.65;;;18.80;86.40;;;;;;7399382;19;19926;-71
2023/09/24 06:09:48;;;;;;;5.60;1.60;;;18.90;86.40;;;;;;7400076;19;19938;-71
2023/09/24 06:12:14;;;;;;;4.38;2.13;;;19.00;85.40;;;;;;7397486;19;19978;-71
2023/09/24 06:14:40;;;;;;;5.68;1.88;;;19.10;85.60;;;;;;7400740;19;20338;-70
2023/09/24 06:17:06;;;;;;;6.68;1.65;;;19.20;85.00;;;;;;7398150;19;19926;-70
2023/09/24 06:19:32;;;;;;;5.75;1.70;;;19.20;84.40;;;;;;7398442;19;19929;-70
2023/09/24 06:21:58;;;;;;;7.10;2.00;;;19.20;84.20;;;;;;7400937;19;19918;-70
2023/09/24 06:24:24;;;;;;;5.28;1.80;;;19.20;84.20;;;;;;7397657;19;19922;-70
2023/09/24 06:26:50;;;;;;;6.78;2.08;;;19.20;83.50;;;;;;7395545;19;19940;-71
2023/09/24 06:29:16;;;;;;;6.50;1.60;;;19.20;83.30;;;;;;7397054;19;20244;-71
2023/09/24 06:31:41;;;;;;;4.45;1.70;;;19.10;83.70;;;;;;7397416;19;19918;-71
2023/09/24 06:34:09;;;;;;;4.30;2.28;;;19.10;83.80;;;;;;7394183;19;19915;-71
2023/09/24 06:36:35;;;;;;;4.28;1.70;;;19.20;83.80;;;;;;7398577;19;19914;-71
2023/09/24 06:39:02;;;;;;;4.35;1.70;;;19.20;83.90;;;;;;7403466;19;19983;-70
2023/09/24 06:41:28;;;;;;;4.93;2.20;;;19.10;84.00;;;;;;7404613;19;19946;-71
2023/09/24 06:43:54;;;;;;;4.68;2.15;;;19.20;84.20;;;;;;7406386;19;19915;-70
2023/09/24 06:46:20;;;;;;;4.30;1.55;;;19.20;84.00;;;;;;7402128;19;20323;-71
2023/09/24 06:48:45;;;;;;;3.80;1.50;;;19.30;83.90;;;;;;7403848;19;19938;-70
2023/09/24 06:51:11;;;;;;;4.30;1.88;;;19.30;83.70;;;;;;7403995;19;19922;-69
2023/09/24 06:53:38;;;;;;;6.82;2.05;;;19.40;83.80;;;;;;7403392;19;19919;-71
2023/09/24 06:56:08;;;;;;;6.85;2.05;;;19.50;83.60;;;;;;7394696;19;19950;-71
2023/09/24 06:58:35;;;;;;;5.68;1.80;;;19.50;83.20;;;;;;7406360;19;19934;-71
2023/09/24 07:01:03;;;;;;;;;;;19.60;82.80;;;;;;7405812;19;19922;-71
2023/09/24 07:03:30;;;;;;;5.50;1.90;;;19.60;82.50;;;;;;7401375;19;19929;-71
2023/09/24 07:05:56;;;;;;;9.25;5.43;;;19.60;82.30;;;;;;7405701;19;19934;-70
2023/09/24 07:08:22;;;;;;;4.38;2.08;;;19.60;82.30;;;;;;7401521;19;19931;-70
2023/09/24 07:11:22;;;;;;;5.10;2.25;;;19.60;82.00;;;;;;7403966;19;19922;-70
2023/09/24 07:13:48;;;;;;;6.18;2.10;;;19.70;81.80;;;;;;7403730;19;19942;-70
2023/09/24 07:16:14;;;;;;;7.63;2.22;;;19.70;81.50;;;;;;7402588;19;20000;-71
2023/09/24 07:18:40;;;;;;;5.85;1.90;;;19.70;81.00;;;;;;7404091;19;19922;-70
2023/09/24 07:21:06;;;;;;;4.28;1.88;;;19.80;81.10;;;;;;7404183;19;19922;-71
2023/09/24 07:23:32;;;;;;;5.35;2.00;;;19.80;81.00;;;;;;7403328;19;19925;-70
2023/09/24 07:25:58;;;;;;;6.60;1.75;;;19.80;80.80;;;;;;7380522;19;19918;-70
2023/09/24 07:28:25;;;;;;;5.93;1.80;;;19.90;80.60;;;;;;7399167;19;19942;-71
2023/09/24 07:30:52;;;;;;;6.38;1.98;;;19.90;80.40;;;;;;7404637;19;19933;-71
2023/09/24 07:33:20;;;;;;;5.35;2.08;;;20.00;80.10;;;;;;7403883;19;20429;-71
2023/09/24 07:35:46;;;;;;;4.63;1.88;;;20.00;79.70;;;;;;7405394;19;20294;-71
2023/09/24 07:38:12;;;;;;;4.93;2.17;;;20.10;79.60;;;;;;7402684;19;19961;-71
2023/09/24 07:40:39;;;;;;;4.93;1.63;;;20.10;79.40;;;;;;7383203;19;19926;-71
2023/09/24 07:43:07;;;;;;;6.35;2.20;;;20.20;79.30;;;;;;7402508;19;19914;-71
2023/09/24 07:45:33;;;;;;;5.20;2.63;;;20.30;78.90;;;;;;7405655;19;19927;-71
2023/09/24 07:47:59;;;;;;;6.25;2.15;;;20.30;78.30;;;;;;7402599;19;19918;-71
2023/09/24 07:50:26;;;;;;;5.93;1.80;;;20.40;78.10;;;;;;7399886;19;20252;-70
2023/09/24 07:52:52;;;;;;;4.05;1.80;;;20.50;77.80;;;;;;7403945;19;19918;-71
2023/09/24 07:55:17;;;;;;;6.53;2.10;;;20.50;77.40;;;;;;7402434;19;19925;-71
2023/09/24 07:57:43;;;;;;;6.03;2.33;;;20.50;77.20;;;;;;7405036;19;20026;-70
2023/09/24 08:00:09;;;;;;;6.50;1.88;;;20.60;77.10;;;;;;7400075;19;19918;-71
2023/09/24 08:02:35;;;;;;;5.68;1.95;;;20.70;76.80;;;;;;7402150;19;19911;-71
2023/09/24 08:05:01;;;;;;;4.28;1.70;;;20.80;76.50;;;;;;7403202;19;20258;-70
2023/09/24 08:07:29;;;;;;;6.10;2.10;;;20.90;76.00;;;;;;7400748;19;20278;-70
2023/09/24 08:09:55;;;;;;;4.05;2.03;;;20.90;75.70;;;;;;7402780;19;19923;-71
2023/09/24 08:12:20;;;;;;;7.22;2.08;;;20.90;75.40;;;;;;7394769;19;19939;-70
2023/09/24 08:14:47;;;;;;;4.07;1.80;;;21.00;75.30;;;;;;7402191;19;19911;-71
2023/09/24 08:17:14;;;;;;;5.40;2.45;;;21.10;75.30;;;;;;7398208;19;19970;-71
2023/09/24 08:19:39;;;;;;;4.82;1.95;;;21.10;74.70;;;;;;7403634;19;19920;-70
2023/09/24 08:22:05;;;;;;;5.32;2.45;;;21.20;74.50;;;;;;7394664;19;19965;-71
2023/09/24 08:24:31;;;;;;;4.90;2.55;;;23.20;70.60;;;;;;7401437;19;19918;-71
2023/09/24 08:26:57;;;;;;;6.75;2.97;;;25.00;60.80;;;;;;7401534;19;19914;-71
2023/09/24 08:29:23;;;;;;;5.50;2.80;;;26.10;52.00;;;;;;7399065;19;19942;-71
2023/09/24 08:31:48;;;;;;;5.20;2.97;;;26.80;49.20;;;;;;7404043;19;19922;-71
2023/09/24 08:34:15;;;;;;;5.07;2.67;;;27.10;47.30;;;;;;7403455;19;20370;-71
2023/09/24 08:36:41;;;;;;;7.15;2.65;;;27.10;45.40;;;;;;7402275;19;20243;-71
2023/09/24 08:39:14;;;;;;;6.95;2.70;;;27.80;44.00;;;;;;7399169;19;19918;-74
2023/09/24 08:41:44;;;;;;;5.22;3.35;;;28.30;42.30;;;;;;7402576;19;19919;-71
2023/09/24 08:44:15;;;;;;;6.03;3.22;;;28.70;41.00;;;;;;7399867;19;19917;-72
2023/09/24 08:46:42;;;;;;;6.03;3.28;;;29.30;39.50;;;;;;7397885;19;19930;-71
2023/09/24 08:49:10;;;;;;;6.65;3.63;;;29.70;37.40;;;;;;7383137;19;19974;-71
2023/09/24 08:51:36;;;;;;;5.70;3.55;;;30.10;37.40;;;;;;7393091;19;19918;-71
2023/09/24 08:54:04;;;;;;;6.78;3.30;;;30.20;36.00;;;;;;7397194;19;19929;-71
2023/09/24 08:56:30;;;;;;;6.10;3.53;;;30.40;35.90;;;;;;7400549;19;19918;-70
2023/09/24 08:58:56;;;;;;;;;;;30.70;34.40;;;;;;7403814;19;20339;-71
2023/09/24 09:01:22;;;;;;;6.22;3.92;;;30.80;33.90;;;;;;7393912;19;19923;-73
2023/09/24 09:03:48;;;;;;;7.30;4.07;;;31.30;33.00;;;;;;7403427;19;19914;-71
2023/09/24 09:06:33;;;;;;;5.50;2.80;;;31.20;32.60;;;;;;7398132;19;20275;-72
2023/09/24 09:08:59;;;;;;;5.03;3.72;;;31.60;31.70;;;;;;7396039;19;20355;-71
2023/09/24 09:11:39;;;;;;;5.78;3.75;;;31.60;31.00;;;;;;7385376;19;19929;-72
2023/09/24 09:14:06;;;;;;;6.43;3.70;;;31.40;31.30;;;;;;7398798;19;19946;-72
2023/09/24 09:16:33;;;;;;;5.93;4.38;;;31.90;31.30;;;;;;7389200;19;19919;-70
2023/09/24 09:19:00;;;;;;;6.95;4.43;;;32.10;30.40;;;;;;7400552;19;19929;-71
2023/09/24 09:21:26;;;;;;;7.30;3.25;;;32.00;29.40;;;;;;7385305;19;20259;-71
2023/09/24 09:23:52;;;;;;;5.65;3.80;;;31.30;30.60;;;;;;7395925;19;19915;-71
2023/09/24 09:26:24;;;;;;;5.80;3.13;;;31.40;31.00;;;;;;7389853;19;20279;-71
2023/09/24 09:28:50;;;;;;;5.90;4.35;;;31.70;30.40;;;;;;7389072;19;19948;-71
2023/09/24 09:31:16;;;;;;;6.72;4.20;;;32.00;29.80;;;;;;7392119;19;19923;-71
2023/09/24 09:33:45;;;;;;;6.07;4.00;;;32.00;29.50;;;;;;7392435;19;19917;-71
2023/09/24 09:36:24;;;;;;;5.72;4.63;;;31.90;30.00;;;;;;7396227;19;19914;-71
2023/09/24 09:38:51;;;;;;;7.55;3.58;;;31.90;30.10;;;;;;7398828;19;19926;-72
2023/09/24 09:41:18;;;;;;;5.18;3.67;;;30.10;31.00;;;;;;7384712;19;20344;-70
2023/09/24 09:43:47;;;;;;;5.82;3.70;;;29.30;34.40;;;;;;7394849;19;19922;-70
2023/09/24 09:46:17;;;;;;;4.90;3.15;;;29.10;35.20;;;;;;7393696;19;19922;-71
2023/09/24 09:48:56;;;;;;;5.32;3.58;;;28.80;36.10;;;;;;7400901;19;20521;-72
2023/09/24 09:51:22;;;;;;;6.05;3.55;;;28.20;37.40;;;;;;7391150;19;21042;-71
2023/09/24 09:53:50;;;;;;;6.85;3.50;;;27.60;39.00;;;;;;7397685;19;19915;-70
2023/09/24 09:56:19;;;;;;;6.75;3.45;;;27.40;40.40;;;;;;7394187;19;19939;-72
2023/09/24 09:58:48;;;;;;;5.43;2.70;;;27.10;41.60;;;;;;7401146;19;19933;-71
2023/09/24 10:01:18;;;;;;;4.88;3.13;;;26.80;42.80;;;;;;7392525;19;19938;-72
2023/09/24 10:03:45;;;;;;;7.07;2.75;;;26.70;43.20;;;;;;7393643;19;19958;-71
2023/09/24 10:06:12;;;;;;;6.03;3.25;;;27.00;43.20;;;;;;7394690;19;19917;-71
2023/09/24 10:08:37;;;;;;;;;;;27.40;42.30;;;;;;7401921;19;20445;-70
2023/09/24 10:11:04;;;;;;;5.20;2.47;;;27.60;41.20;;;;;;7384319;19;19911;-72
2023/09/24 10:13:46;;;;;;;5.07;2.80;;;27.70;41.50;;;;;;7401914;19;19915;-71
2023/09/24 10:16:31;;;;;;;5.70;3.22;;;27.40;41.50;;;;;;7398761;19;19974;-71
2023/09/24 10:19:01;;;;;;;5.93;2.03;;;27.70;41.40;;;;;;7404001;19;19918;-72
2023/09/24 10:21:33;;;;;;;6.03;2.97;;;27.90;40.80;;;;;;7403508;19;19922;-72
2023/09/24 10:24:20;;;;;;;5.57;3.17;;;28.10;40.30;;;;;;7400479;19;19911;-72
2023/09/24 10:27:03;;;;;;;5.72;3.42;;;28.20;40.50;;;;;;7394293;19;19933;-71
2023/09/24 10:29:44;;;;;;;6.10;2.55;;;28.60;39.10;;;;;;7401382;19;19919;-71
2023/09/24 10:32:17;;;;;;;5.10;3.53;;;28.50;39.10;;;;;;7389548;19;19911;-72
2023/09/24 10:37:29;;;;;;;7.38;3.38;;;28.40;39.50;;;;;;7398098;19;19923;-71
2023/09/24 10:39:58;;;;;;;5.63;2.72;;;28.30;40.10;;;;;;7405380;19;20232;-72
2023/09/24 10:42:25;;;;;;;6.15;3.50;;;28.60;39.80;;;;;;7400009;19;19926;-72
2023/09/24 10:45:14;;;;;;;6.45;3.70;;;29.00;38.30;;;;;;7403528;19;19930;-72
2023/09/24 10:47:42;;;;;;;5.00;3.17;;;29.40;38.10;;;;;;7399104;19;19906;-73
2023/09/24 10:50:17;;;;;;;4.72;3.17;;;29.70;37.10;;;;;;7401545;19;19922;-72
2023/09/24 10:52:53;;;;;;;5.45;2.88;;;29.70;36.40;;;;;;7398175;19;20256;-74
2023/09/24 10:55:28;;;;;;;8.02;3.10;;;28.90;37.80;;;;;;7395076;19;19910;-74
2023/09/24 10:57:55;;;;;;;5.45;3.35;;;28.70;38.80;;;;;;7399633;19;19933;-72
2023/09/24 11:00:22;;;;;;;7.68;4.28;;;29.30;37.20;;;;;;7399365;19;20343;-71
2023/09/24 11:03:02;;;;;;;6.25;3.65;;;29.60;36.90;;;;;;7399694;19;19914;-72
2023/09/24 11:05:29;;;;;;;5.85;3.70;;;29.90;36.40;;;;;;7394521;19;19915;-72
2023/09/24 11:07:56;;;;;;;5.25;3.45;;;29.90;35.70;;;;;;7403521;19;19915;-73
2023/09/24 11:10:23;;;;;;;6.55;3.50;;;30.00;35.50;;;;;;7398304;19;20350;-72
2023/09/24 11:12:54;;;;;;;5.47;3.38;;;29.30;37.30;;;;;;7394892;19;19927;-72
2023/09/24 11:15:23;;;;;;;6.68;3.40;;;29.50;36.80;;;;;;7392836;19;19907;-72
2023/09/24 11:17:50;;;;;;;7.40;3.63;;;29.70;36.40;;;;;;7382202;19;20231;-73
2023/09/24 11:20:17;;;;;;;5.13;3.75;;;30.30;35.40;;;;;;7399725;19;19944;-73
2023/09/24 11:22:43;;;;;;;7.53;3.83;;;30.60;35.20;;;;;;7400132;19;19953;-73
2023/09/24 11:25:12;;;;;;;5.50;3.75;;;30.80;34.00;;;;;;7393191;19;19919;-73
2023/09/24 11:27:49;;;;;;;6.65;4.13;;;30.90;33.90;;;;;;7379881;19;19921;-72
2023/09/24 11:30:21;;;;;;;5.82;3.47;;;30.60;34.50;;;;;;7394369;19;19918;-72
2023/09/24 11:32:48;;;;;;;5.35;3.90;;;30.80;35.00;;;;;;7390845;19;19923;-73
2023/09/24 11:35:16;;;;;;;6.25;4.47;;;31.10;34.40;;;;;;7396578;19;19911;-72
2023/09/24 11:38:01;;;;;;;7.22;4.57;;;30.50;34.50;;;;;;7391126;19;19914;-74
2023/09/24 11:40:33;;;;;;;5.15;3.67;;;30.70;35.10;;;;;;7393876;19;19938;-72
2023/09/24 11:43:11;;;;;;;;;;;31.00;34.20;;;;;;7399802;19;19942;-71
2023/09/24 11:45:39;;;;;;;6.05;3.33;;;31.40;33.50;;;;;;7391616;19;20318;-72
2023/09/24 11:48:13;;;;;;;6.30;4.32;;;31.10;33.70;;;;;;7396662;19;19932;-73
2023/09/24 11:50:42;;;;;;;4.80;3.67;;;31.50;33.30;;;;;;7399721;19;19921;-73
2023/09/24 11:53:08;;;;;;;5.65;4.68;;;31.20;33.80;;;;;;7396886;19;20343;-73
2023/09/24 11:55:34;;;;;;;5.75;3.80;;;30.50;34.30;;;;;;7391484;19;19922;-73
2023/09/24 11:58:00;;;;;;;6.85;4.20;;;30.40;35.50;;;;;;7383100;19;19914;-72
2023/09/24 12:00:26;;;;;;;5.70;4.68;;;31.00;35.00;;;;;;7383486;19;19915;-73
2023/09/24 12:02:51;;;;;;;7.18;3.85;;;31.20;34.10;;;;;;7391592;19;20426;-72
2023/09/24 12:05:17;;;;;;;6.93;3.70;;;31.70;33.50;;;;;;7392105;19;19982;-73
2023/09/24 12:07:43;;;;;;;5.82;4.07;;;31.80;33.30;;;;;;7401412;19;19919;-73
2023/09/24 12:10:09;;;;;;;6.10;4.30;;;31.70;33.50;;;;;;7400637;19;19911;-72
2023/09/24 12:12:35;;;;;;;5.70;4.40;;;32.00;32.80;;;;;;7401200;19;19918;-73
2023/09/24 12:15:01;;;;;;;6.53;4.13;;;32.40;32.60;;;;;;7399461;19;19915;-72
2023/09/24 12:17:28;;;;;;;6.88;4.45;;;32.20;32.60;;;;;;7402088;19;19922;-72
2023/09/24 12:19:53;;;;;;;7.55;4.45;;;32.70;32.20;;;;;;7401607;19;19934;-72
2023/09/24 12:22:20;;;;;;;8.60;4.10;;;32.70;31.30;;;;;;7402060;19;19978;-73
2023/09/24 12:24:46;;;;;;;5.60;3.55;;;32.90;31.40;;;;;;7401357;19;19926;-72
2023/09/24 12:27:12;;;;;;;7.13;4.15;;;31.70;32.70;;;;;;7399969;19;20040;-73
2023/09/24 12:29:38;;;;;;;6.18;4.30;;;32.20;33.30;;;;;;7401265;19;19933;-73
2023/09/24 12:32:04;;;;;;;6.45;3.95;;;32.40;32.60;;;;;;7400844;19;19922;-72
2023/09/24 12:34:29;;;;;;;5.85;4.30;;;32.30;33.30;;;;;;7403397;19;19915;-72
2023/09/24 12:36:55;;;;;;;6.78;4.25;;;32.50;32.60;;;;;;7398557;19;19935;-72
2023/09/24 12:39:21;;;;;;;6.95;4.32;;;31.90;33.60;;;;;;7401897;19;19914;-73
2023/09/24 12:41:48;;;;;;;5.90;4.43;;;32.60;33.10;;;;;;7403054;19;19948;-72
2023/09/24 12:44:14;;;;;;;6.20;3.83;;;31.90;33.70;;;;;;7400803;19;20363;-72
2023/09/24 12:46:40;;;;;;;5.78;3.20;;;30.50;35.30;;;;;;7403604;19;19919;-72
2023/09/24 12:49:06;;;;;;;7.85;3.47;;;29.70;38.10;;;;;;7399981;19;19942;-72
2023/09/24 12:51:32;;;;;;;7.18;2.97;;;29.70;38.80;;;;;;7401405;19;19945;-73
2023/09/24 12:53:57;;;;;;;;;;;29.30;40.10;;;;;;7402006;19;19992;-73
2023/09/24 12:56:24;;;;;;;8.20;2.72;;;28.70;41.40;;;;;;7401422;19;19982;-73